Middle Georgia Regional Airport

Airport
ICAO code: 
KMCN
Summary
ICAO Region: 
NAM
Territory: 
Location: 
Macon, Georgia,
Coordinates: 
Aerial View: 
32° 41' 45.652" N, 83° 38' 50.343" W
Metar
Observation
KMCN 040753Z AUTO 00000KT 10SM CLR 07/06 A3008 RMK AO2 SLP184 T00720061
Station
Macon, Middle Georgia Regional Airport
Date/Time
2021-12-04 07:53:00
Wind direction
Wind speed
00 kts
Lowest cloud amount
n/a
Temperature
7.2°C
Dew point
6.1°C
Humidity
92%
Weather condition
n/a

Description

Middle Georgia Regional Airport is public use airport located 17 km south of the central business district of Macon, a city in Bibb County, Georgia.

Climatology

Humid “subtropical” climate (Köppen climate classification Cfa) - characterized by hot, humid summers and cool winters. Significant amounts of precipitation occur in all seasons in most areas.

Runways

Designator Length Width Surface Rops
13/31 1524 46 ASP Yes/Yes
5/23 1982 46 ASP Yes/Yes
Airport map: 
Aerial View: 

SKYbrary Partners:

Safety knowledge contributed by: